Flight Track Log - Related Links

Times and Time Zones

All times are in EDT time to prevent confusion due to time zone crossing. See the N749SS flight status page for this flight to view local times or setup timezone preferences in your user account.

Time Position Orientation Groundspeed Altitude Reporting Facility
EDT Latitude Longitude Course Direction KTS MPH feet Rate Location/Type
Tue 11:03:22 AM 39.9833 -75.9167 217° Southwest 192 221 2,700  Level Philadelphia TRACON
Tue 11:04:10 AM 39.9500 -75.9500 217° Southwest 257 296 3,800 889 Climbing Philadelphia TRACON
Tue 11:05:10 AM 39.9000 -75.8833 134° Southeast 255 293 4,300 2,149 Climbing Philadelphia TRACON
Tue 11:06:38 AM 39.8744 -75.7642 106° East 269 310 9,100 2,797 Climbing New York Center
Tue 11:07:38 AM 39.8031 -75.8267 214° Southwest 190 219 11,200 2,350 Climbing New York Center
Tue 11:08:38 AM 39.7503 -75.9336 237° Southwest 274 315 13,800 2,700 Climbing New York Center
Tue 11:09:38 AM 39.6828 -76.0447 232° Southwest 368 423 16,600 2,727 Climbing New York Center
Tue 11:11:45 AM 39.5386 -76.2750 231° Southwest 414 476 22,300 2,631 Climbing Washington Center
Tue 11:12:45 AM 39.4653 -76.3844 229° Southwest 414 476 24,800 2,400 Climbing Washington Center
Tue 11:13:45 AM 39.3956 -76.4992 232° Southwest 414 476 27,100 2,033 Climbing Washington Center
Tue 11:14:46 AM 39.3281 -76.6003 229° Southwest 414 476 28,900 1,831 Climbing Washington Center
Tue 11:15:43 AM 39.2519 -76.7172 230° Southwest 421 484 30,700 1,664 Climbing Washington Center
Tue 11:16:45 AM 39.1781 -76.8339 231° Southwest 426 490 32,200 1,525 Climbing Washington Center
Tue 11:17:45 AM 39.0994 -76.9556 230° Southwest 438 504 33,800 1,550 Climbing Washington Center
Tue 11:18:45 AM 39.0106 -77.0769 227° Southwest 455 524 35,300 2,136 Climbing Washington Center
Tue 11:19:43 AM 39.0131 -77.1944 272° West 343 395 38,000 1,350 Climbing Washington Center
Tue 11:20:45 AM 38.8139 -77.2886 200° South 380 437 38,000  Level Washington Center
Tue 11:21:45 AM 38.7122 -77.4008 221° Southwest 436 502 38,000  Level Washington Center
Tue 11:22:46 AM 38.6083 -77.5100 219° Southwest 468 539 38,000  Level Washington Center
Tue 11:23:44 AM 38.5000 -77.6317 221° Southwest 480 552 38,000  Level Washington Center
Tue 11:24:45 AM 38.4000 -77.7378 220° Southwest 480 552 38,000  Level Washington Center
Tue 11:25:46 AM 38.3003 -77.8458 220° Southwest 480 552 38,000  Level Washington Center
Tue 11:26:46 AM 38.1981 -77.9564 220° Southwest 480 552 38,000  Level Washington Center
Tue 11:27:44 AM 38.1000 -78.0614 220° Southwest 480 552 38,000  Level Washington Center
Tue 11:28:45 AM 38.0103 -78.1586 221° Southwest 480 552 38,000  Level Washington Center
Tue 11:29:46 AM 37.8953 -78.2681 217° Southwest 470 541 38,000  Level Washington Center
Tue 11:30:44 AM 37.7908 -78.3694 218° Southwest 475 547 38,000  Level Washington Center
Tue 11:31:44 AM 37.6947 -78.4603 217° Southwest 480 552 38,000  Level Washington Center
Tue 11:32:45 AM 37.5881 -78.5586 216° Southwest 480 552 38,000  Level Washington Center
Tue 11:33:43 AM 37.4792 -78.6617 217° Southwest 485 558 38,000  Level Washington Center
Tue 11:34:44 AM 37.3722 -78.7592 216° Southwest 491 565 38,000  Level Washington Center
Tue 11:35:45 AM 37.2525 -78.8692 216° Southwest 491 565 38,000  Level Washington Center
Tue 11:36:46 AM 37.1433 -78.9686 216° Southwest 491 565 38,000  Level Washington Center
Tue 11:37:44 AM 37.0361 -79.0706 217° Southwest 491 565 38,000  Level Washington Center
Tue 11:38:45 AM 36.9289 -79.1697 216° Southwest 491 565 38,000  Level Washington Center
Tue 11:39:45 AM 36.8194 -79.2711 217° Southwest 496 571 38,000  Level Washington Center
Tue 11:40:45 AM 36.7225 -79.3622 217° Southwest 496 571 38,000  Level Washington Center
Tue 11:43:09 AM 36.4578 -79.5989 216° Southwest 485 558 38,000  Level Atlanta Center
Tue 11:44:09 AM 36.3386 -79.7086 217° Southwest 490 564 38,000  Level Atlanta Center
Tue 11:45:09 AM 36.2292 -79.8047 215° Southwest 485 558 38,000  Level Atlanta Center
Tue 11:46:09 AM 36.1181 -79.9056 216° Southwest 490 564 38,000  Level Atlanta Center
Tue 11:47:09 AM 36.0064 -79.9961 213° Southwest 490 564 38,000  Level Atlanta Center
Tue 11:48:09 AM 35.8953 -80.0475 201° Southwest 484 557 38,000  Level Atlanta Center
Tue 11:49:09 AM 35.7722 -80.1125 203° Southwest 484 557 38,000  Level Atlanta Center
Tue 11:50:09 AM 35.6347 -80.1831 203° Southwest 484 557 38,000  Level Atlanta Center
Tue 11:51:09 AM 35.5258 -80.2367 202° Southwest 484 557 38,000  Level Atlanta Center
Tue 11:52:09 AM 35.4067 -80.2981 203° Southwest 484 557 38,000  Level Atlanta Center
Tue 11:54:06 AM 35.1494 -80.4225 202° Southwest 508 585 38,000  Level Jacksonville Center
Tue 11:55:06 AM 35.0256 -80.4844 202° Southwest 493 567 38,000  Level Jacksonville Center
Tue 11:56:06 AM 34.9036 -80.5486 203° Southwest 485 558 38,000  Level Jacksonville Center
Tue 11:57:06 AM 34.7981 -80.5994 202° Southwest 480 552 38,000  Level Jacksonville Center
Tue 11:58:06 AM 34.6700 -80.6586 201° Southwest 475 547 38,000  Level Jacksonville Center
Tue 11:59:06 AM 34.5272 -80.7353 204° Southwest 500 575 38,000  Level Jacksonville Center
Tue 12:00:06 PM 34.4175 -80.7833 200° South 489 563 38,000  Level Jacksonville Center
Tue 12:01:06 PM 34.2914 -80.8442 202° Southwest 489 563 38,000  Level Jacksonville Center
Tue 12:02:06 PM 34.1756 -80.9047 203° Southwest 478 550 38,000  Level Jacksonville Center
Tue 12:03:06 PM 34.0492 -80.9678 202° Southwest 478 550 38,000  Level Jacksonville Center
Tue 12:04:06 PM 33.9247 -81.0256 201° Southwest 484 557 38,000  Level Jacksonville Center
Tue 12:05:06 PM 33.7942 -81.0833 200° South 492 566 38,000  Level Jacksonville Center
Tue 12:06:06 PM 33.6700 -81.1531 205° Southwest 497 572 38,000  Level Jacksonville Center
Tue 12:07:06 PM 33.5436 -81.2131 202° Southwest 497 572 38,000  Level Jacksonville Center
Tue 12:08:06 PM 33.4169 -81.2750 202° Southwest 497 572 38,000  Level Jacksonville Center
Tue 12:09:06 PM 33.2739 -81.3472 203° Southwest 497 572 38,000  Level Jacksonville Center
Tue 12:10:06 PM 33.1472 -81.4064 201° Southwest 492 566 38,000  Level Jacksonville Center
Tue 12:11:06 PM 33.0206 -81.4681 202° Southwest 492 566 38,000  Level Jacksonville Center
Tue 12:12:06 PM 32.8942 -81.5294 202° Southwest 492 566 38,000  Level Jacksonville Center
Tue 12:13:06 PM 32.7653 -81.5906 202° Southwest 498 573 38,000  Level Jacksonville Center
Tue 12:14:06 PM 32.6406 -81.6517 202° Southwest 488 562 38,000  Level Jacksonville Center
Tue 12:15:06 PM 32.5094 -81.6953 196° South 493 567 38,000  Level Jacksonville Center
Tue 12:16:06 PM 32.3761 -81.7217 189° South 493 567 38,000  Level Jacksonville Center
Tue 12:17:06 PM 32.2594 -81.7453 190° South 481 554 38,000  Level Jacksonville Center
Tue 12:18:06 PM 32.1136 -81.7742 190° South 489 563 38,000  Level Jacksonville Center
Tue 12:19:06 PM 31.9761 -81.8028 190° South 490 564 38,000  Level Jacksonville Center
Tue 12:20:06 PM 31.8406 -81.8264 188° South 497 572 38,000  Level Jacksonville Center
Tue 12:21:06 PM 31.7217 -81.8472 188° South 497 572 38,000  Level Jacksonville Center
Tue 12:22:06 PM 31.5903 -81.8731 190° South 490 564 38,000  Level Jacksonville Center
Tue 12:23:06 PM 31.4403 -81.8992 188° South 485 558 38,000  Level Jacksonville Center
Tue 12:24:06 PM 31.3236 -81.9247 191° South 485 558 38,000  Level Jacksonville Center
Tue 12:25:06 PM 31.1858 -81.9503 189° South 485 558 38,000  Level Jacksonville Center
Tue 12:26:06 PM 31.0503 -81.9736 188° South 491 565 38,000  Level Jacksonville Center
Tue 12:27:06 PM 30.9169 -81.9992 189° South 491 565 38,000  Level Jacksonville Center
Tue 12:28:06 PM 30.7833 -82.0244 189° South 491 565 38,000  Level Jacksonville Center
Tue 12:29:06 PM 30.6500 -82.0497 189° South 491 565 38,000  Level Jacksonville Center
Tue 12:30:06 PM 30.5039 -82.0703 187° South 485 558 38,000  Level Jacksonville Center
Tue 12:31:06 PM 30.3683 -82.0981 190° South 490 564 38,000  Level Jacksonville Center
Tue 12:32:06 PM 30.2328 -82.1233 189° South 490 564 38,000  Level Jacksonville Center
Tue 12:33:06 PM 30.0972 -82.1147 177° South 490 564 38,000  Level Jacksonville Center
Tue 12:34:06 PM 29.9614 -82.0919 172° South 481 554 38,000  Level Jacksonville Center
Tue 12:35:06 PM 29.8317 -82.0642 169° South 486 559 38,000  Level Jacksonville Center
Tue 12:36:06 PM 29.7000 -82.0319 168° South 480 552 38,000 -50 Level Jacksonville Center
Tue 12:37:06 PM 29.5683 -82.0114 172° South 480 552 37,900 -950 Descending Jacksonville Center
Tue 12:38:06 PM 29.4367 -81.9864 171° South 485 558 36,100 -1,450 Descending Jacksonville Center
Tue 12:39:06 PM 29.3069 -81.9592 170° South 485 558 35,000 -371 Descending Jacksonville Center
Tue 12:41:04 PM 29.0567 -81.9081 170° South 506 582 35,000 -337 Level Miami Center
Tue 12:42:04 PM 28.9200 -81.8806 170° South 506 582 34,000 -2,050 Descending Miami Center
Tue 12:43:04 PM 28.7853 -81.8556 171° South 500 575 30,900 -3,050 Descending Miami Center
Tue 12:44:04 PM 28.6486 -81.8281 170° South 500 575 27,900 -1,818 Descending Miami Center
Tue 12:45:16 PM 28.4869 -81.7925 169° South 500 575 26,900 -409 Descending Miami Center
Tue 12:46:16 PM 28.3486 -81.7511 165° South 505 581 27,000 -550 Climbing Miami Center
Tue 12:47:16 PM 28.2061 -81.7094 166° South 511 588 25,800 -1,550 Descending Miami Center
Tue 12:48:16 PM 28.0739 -81.6733 166° South 511 588 23,900 -1,950 Descending Miami Center
Tue 12:49:16 PM 27.9381 -81.6792 182° South 484 557 21,900 -1,950 Descending Miami Center
Tue 12:50:16 PM 27.8014 -81.6500 169° South 484 557 20,000 -1,800 Descending Miami Center
Tue 12:51:16 PM 27.6894 -81.6219 167° South 464 534 18,300 -1,800 Descending Miami Center
Tue 12:52:16 PM 27.5528 -81.5950 170° South 464 534 16,400 -1,950 Descending Miami Center
Tue 12:53:16 PM 27.4344 -81.5692 169° South 452 520 14,400 -1,800 Descending Miami Center
Tue 12:54:16 PM 27.3247 -81.5483 170° South 439 505 12,800 -1,550 Descending Miami Center
Tue 12:55:16 PM 27.2167 -81.5278 170° South 412 474 11,300 -1,400 Descending Miami Center
Tue 12:56:16 PM 27.1089 -81.5047 169° South 400 460 10,000 -650 Descending Miami Center
Tue 12:57:16 PM 27.0053 -81.4842 170° South 387 445 10,000  Level Miami Center
Tue 12:58:16 PM 26.9014 -81.4639 170° South 382 440 10,000  Level Miami Center
Tue 12:59:16 PM 26.8000 -81.4411 169° South 382 440 10,000  Level Miami Center
Tue 01:00:16 PM 26.6986 -81.4139 167° South 382 440 10,000 -150 Level Miami Center
Tue 01:01:16 PM 26.6075 -81.4500 200° South 353 406 9,700 -800 Descending Miami Center
Tue 01:02:16 PM 26.5353 -81.4911 207° Southwest 300 345 8,400 -1,650 Descending Miami Center
Tue 01:03:16 PM 26.4631 -81.5325 207° Southwest 300 345 6,400 -1,700 Descending Miami Center
Tue 01:04:16 PM 26.3931 -81.5667 204° Southwest 293 337 5,000 -1,400 Descending Miami Center
Tue 01:06:00 PM 26.2207 -81.6210 236° Southwest  Level FlightAware Approximate
Tue 01:13:00 PM 26.1500 -81.7667 246° West  Level FlightAware Approximate
Tue 01:14:00 PM 26.1524 -81.7756 246° West  Level Estimated
Tue 01:15:00 PM 26.1524 -81.7756 246° West  Level Estimated
Tue 01:16:00 PM 26.1524 -81.7756 246° West  Level Estimated
Tue 01:17:00 PM 26.1524 -81.7756 246° West  Level Estimated
Tue 01:18:00 PM 26.1524 -81.7756 246° West  Level Estimated
Tue 01:19:00 PM 26.1524 -81.7756 246° West  Level Estimated
Tue 01:20:00 PM 26.1524 -81.7756 246° West  Level Estimated
Tue 01:21:00 PM 26.1524 -81.7756 246° West  Level Estimated

Login

Don't have an account? Register now (free) for customized features, flight alerts, and more!